Time;durP1;ratioP1;P1;durP2;ratioP2;P2;SDS_P1;SDS_P2;PMS_P1;PMS_P2;Temp;Humidity;BMP_temperature;BMP_pressure;BME280_temperature;BME280_humidity;BME280_pressure;Samples;Min_cycle;Max_cycle;Signal;HPM_P1;HPM_P2
2023/03/30 00:02:23;;;;;;;9.30;2.97;;;16.80;99.90;;;;;;4985979;28;20502;-73
2023/03/30 00:04:51;;;;;;;8.13;3.17;;;16.60;99.90;;;;;;4985362;28;20984;-74
2023/03/30 00:07:18;;;;;;;7.53;3.00;;;16.60;99.90;;;;;;4984694;28;20510;-73
2023/03/30 00:09:45;;;;;;;9.33;3.03;;;16.70;99.90;;;;;;4985531;28;20949;-74
2023/03/30 00:12:19;;;;;;;5.43;3.17;;;16.60;99.90;;;;;;4985021;28;20510;-73
2023/03/30 00:14:45;;;;;;;7.53;2.90;;;16.50;99.90;;;;;;4986172;28;20455;-73
2023/03/30 00:17:11;;;;;;;10.13;2.70;;;16.60;99.90;;;;;;4984170;28;20961;-73
2023/03/30 00:19:37;;;;;;;9.53;3.20;;;16.70;99.90;;;;;;4985043;28;20253;-74
2023/03/30 00:22:07;;;;;;;8.27;2.60;;;16.60;99.90;;;;;;4984161;28;21239;-73
2023/03/30 00:24:34;;;;;;;11.27;3.17;;;16.70;99.90;;;;;;4985545;28;20485;-74
2023/03/30 00:27:00;;;;;;;7.03;3.07;;;16.60;99.90;;;;;;4985664;28;20423;-73
2023/03/30 00:29:26;;;;;;;7.73;2.63;;;16.70;99.90;;;;;;4983697;28;20883;-73
2023/03/30 00:31:52;;;;;;;5.70;2.90;;;16.60;99.90;;;;;;4985295;28;20188;-74
2023/03/30 00:34:18;;;;;;;8.30;3.10;;;16.70;99.90;;;;;;4982932;28;20982;-75
2023/03/30 00:36:45;;;;;;;6.40;2.73;;;16.60;99.90;;;;;;4986099;28;20200;-73
2023/03/30 00:39:11;;;;;;;10.67;3.70;;;16.60;99.90;;;;;;4986085;28;20456;-74
2023/03/30 00:41:37;;;;;;;5.57;3.10;;;16.60;99.90;;;;;;4984690;28;20959;-73
2023/03/30 00:44:05;;;;;;;10.17;2.80;;;16.80;99.90;;;;;;4985812;28;20833;-74
2023/03/30 00:46:31;;;;;;;8.80;3.17;;;16.70;99.90;;;;;;4985714;28;20420;-73
2023/03/30 00:49:02;;;;;;;8.23;3.37;;;16.90;99.90;;;;;;4985629;28;20439;-73
2023/03/30 00:51:29;;;;;;;9.30;3.20;;;16.90;99.90;;;;;;4985688;28;20470;-74
2023/03/30 00:54:02;;;;;;;11.03;3.60;;;16.80;99.90;;;;;;4984458;28;20532;-75
2023/03/30 00:56:30;;;;;;;7.10;3.27;;;16.90;99.90;;;;;;4985141;28;20414;-73
2023/03/30 00:58:56;;;;;;;10.37;3.03;;;16.80;99.90;;;;;;4985046;28;20493;-73
2023/03/30 01:01:27;;;;;;;9.43;3.57;;;16.70;99.90;;;;;;4983108;28;20419;-74
2023/03/30 01:03:56;;;;;;;8.40;3.47;;;16.80;99.90;;;;;;4984448;28;20519;-73
2023/03/30 01:06:24;;;;;;;9.30;4.30;;;16.70;99.90;;;;;;4985839;28;20506;-73
2023/03/30 01:08:51;;;;;;;9.43;3.50;;;16.60;99.90;;;;;;4984420;28;20470;-74
2023/03/30 01:11:17;;;;;;;15.40;3.97;;;16.70;99.90;;;;;;4984825;28;20804;-71
2023/03/30 01:13:46;;;;;;;7.63;3.30;;;16.70;99.90;;;;;;4983608;28;20718;-74
2023/03/30 01:16:38;;;;;;;8.43;3.23;;;16.80;99.90;;;;;;4985532;28;20183;-74
2023/03/30 01:19:42;;;;;;;10.00;3.63;;;16.70;99.90;;;;;;4985441;28;20957;-74
2023/03/30 01:22:14;;;;;;;9.70;2.47;;;16.70;99.90;;;;;;4985658;28;20415;-73
2023/03/30 01:25:01;;;;;;;14.80;3.20;;;16.70;99.90;;;;;;4984150;28;20427;-73
2023/03/30 01:27:38;;;;;;;6.00;3.07;;;16.80;99.90;;;;;;4984425;28;20447;-74
2023/03/30 01:30:25;;;;;;;10.20;2.80;;;16.90;99.90;;;;;;4986592;28;20502;-73
2023/03/30 01:32:56;;;;;;;13.00;3.17;;;16.80;99.90;;;;;;5003374;28;20423;-72
2023/03/30 01:35:44;;;;;;;12.77;3.80;;;16.80;99.90;;;;;;4987228;28;20479;-74
2023/03/30 01:38:53;;;;;;;13.57;3.40;;;16.70;99.90;;;;;;4987688;28;20458;-72
2023/03/30 01:41:28;;;;;;;9.53;3.40;;;16.40;99.90;;;;;;4988425;28;20415;-74
2023/03/30 01:44:10;;;;;;;8.80;2.90;;;16.30;99.90;;;;;;4988421;28;20407;-71
2023/03/30 01:46:50;;;;;;;12.07;3.67;;;16.20;99.90;;;;;;5002697;28;21027;-72
2023/03/30 01:49:28;;;;;;;10.47;3.23;;;16.20;99.90;;;;;;4988032;28;20434;-75
2023/03/30 01:52:15;;;;;;;9.70;3.83;;;16.20;99.90;;;;;;4987559;28;20705;-71
2023/03/30 01:55:02;;;;;;;10.87;3.97;;;16.20;99.90;;;;;;4985895;28;20453;-74
2023/03/30 01:57:42;;;;;;;9.53;3.50;;;16.10;99.90;;;;;;4988303;28;20460;-73
2023/03/30 02:00:13;;;;;;;12.33;3.20;;;15.90;99.90;;;;;;4987029;28;20411;-73
2023/03/30 02:02:54;;;;;;;6.47;3.03;;;15.90;99.90;;;;;;4987111;28;20450;-73
2023/03/30 02:05:22;;;;;;;10.43;3.83;;;15.90;99.90;;;;;;4987233;28;20406;-72
2023/03/30 02:07:53;;;;;;;10.87;4.00;;;16.00;99.90;;;;;;4986604;28;20438;-74
2023/03/30 02:10:21;;;;;;;13.90;3.70;;;15.90;99.90;;;;;;4986252;28;20427;-74
2023/03/30 02:12:49;;;;;;;12.43;4.57;;;16.00;99.90;;;;;;4988958;28;20415;-72
2023/03/30 02:15:17;;;;;;;11.70;2.70;;;16.00;99.90;;;;;;4986900;28;20498;-74
2023/03/30 02:17:46;;;;;;;6.40;3.20;;;16.00;99.90;;;;;;4986166;28;20438;-73
2023/03/30 02:20:15;;;;;;;18.33;3.57;;;16.10;99.90;;;;;;4986672;28;20444;-73
2023/03/30 02:22:41;;;;;;;8.50;3.10;;;16.00;99.90;;;;;;4987083;28;20474;-70
2023/03/30 02:25:07;;;;;;;9.20;3.83;;;15.80;99.90;;;;;;4985833;28;20504;-75
2023/03/30 02:27:33;;;;;;;8.83;3.37;;;15.90;99.90;;;;;;4986263;28;20422;-73
2023/03/30 02:29:59;;;;;;;7.03;3.50;;;15.90;99.90;;;;;;4989033;28;20940;-74
2023/03/30 02:32:30;;;;;;;9.33;3.20;;;15.90;99.90;;;;;;4988004;28;20419;-73
2023/03/30 02:35:33;;;;;;;10.10;4.33;;;15.90;99.90;;;;;;4988296;28;20198;-73
2023/03/30 02:38:23;;;;;;;11.60;3.30;;;15.80;99.90;;;;;;4987805;28;20447;-75
2023/03/30 02:41:12;;;;;;;15.93;3.97;;;15.90;99.90;;;;;;4986690;28;20700;-72
2023/03/30 02:44:05;;;;;;;10.33;3.83;;;15.80;99.90;;;;;;4987581;28;20415;-74
2023/03/30 02:46:59;;;;;;;10.53;3.40;;;16.00;99.90;;;;;;4986226;28;20477;-73
2023/03/30 02:49:52;;;;;;;11.03;2.83;;;15.90;99.90;;;;;;4987462;28;20476;-72
2023/03/30 02:52:41;;;;;;;14.27;3.33;;;16.00;99.90;;;;;;4986746;28;20416;-74
2023/03/30 02:55:21;;;;;;;9.50;3.53;;;15.90;99.90;;;;;;4988336;28;20920;-74
2023/03/30 02:58:13;;;;;;;6.60;2.90;;;16.00;99.90;;;;;;4987849;28;20499;-74
2023/03/30 03:00:45;;;;;;;10.27;3.23;;;16.00;99.90;;;;;;4986557;28;20415;-73
2023/03/30 03:03:18;;;;;;;13.23;3.70;;;16.00;99.90;;;;;;4987667;28;20528;-72
2023/03/30 03:05:44;;;;;;;12.30;4.13;;;15.80;99.90;;;;;;4987560;28;20430;-74
2023/03/30 03:08:13;;;;;;;8.70;3.80;;;15.70;99.90;;;;;;4985310;28;21001;-73
2023/03/30 03:10:39;;;;;;;7.80;3.53;;;15.40;99.90;;;;;;4987149;28;20188;-72
2023/03/30 03:13:04;;;;;;;12.87;4.20;;;15.30;99.90;;;;;;4987201;28;20773;-73
2023/03/30 03:15:30;;;;;;;7.50;3.77;;;15.10;99.90;;;;;;4986901;28;20203;-73
2023/03/30 03:17:57;;;;;;;12.13;3.90;;;15.10;99.90;;;;;;4986765;28;20704;-74
2023/03/30 03:20:22;;;;;;;9.30;3.47;;;14.90;99.90;;;;;;4987276;28;20766;-75
2023/03/30 03:22:48;;;;;;;11.90;3.90;;;14.80;99.90;;;;;;4987369;28;20422;-73
2023/03/30 03:25:14;;;;;;;8.20;4.13;;;14.70;99.90;;;;;;4985639;28;20189;-74
2023/03/30 03:27:40;;;;;;;12.23;4.67;;;14.60;99.90;;;;;;4987244;28;20218;-71
2023/03/30 03:30:06;;;;;;;12.63;4.00;;;14.50;99.90;;;;;;4987289;28;20419;-72
2023/03/30 03:32:32;;;;;;;10.83;4.07;;;14.60;99.90;;;;;;4986400;28;20423;-70
2023/03/30 03:34:57;;;;;;;7.87;3.43;;;14.50;99.90;;;;;;4985971;28;20819;-73
2023/03/30 03:37:23;;;;;;;12.63;4.17;;;14.70;99.90;;;;;;4984563;28;20192;-73
2023/03/30 03:39:48;;;;;;;9.27;3.20;;;14.70;99.90;;;;;;5031169;22;20230;-73
2023/03/30 03:42:14;;;;;;;10.30;3.70;;;14.70;99.90;;;;;;5023956;28;20634;-72
2023/03/30 03:44:40;;;;;;;14.33;4.60;;;14.80;99.90;;;;;;5024081;28;20604;-72
2023/03/30 03:47:05;;;;;;;11.93;4.93;;;14.80;99.90;;;;;;5023784;28;20679;-73
2023/03/30 03:49:31;;;;;;;9.63;3.80;;;14.80;99.90;;;;;;5023973;28;20704;-73
2023/03/30 03:51:56;;;;;;;11.00;4.30;;;14.70;99.90;;;;;;5023346;28;20181;-72
2023/03/30 03:54:22;;;;;;;8.67;4.03;;;14.70;99.90;;;;;;5023838;28;20268;-73
2023/03/30 03:56:47;;;;;;;10.37;3.27;;;14.70;99.90;;;;;;5022579;28;20281;-74
2023/03/30 03:59:13;;;;;;;12.33;3.73;;;14.70;99.90;;;;;;5023820;28;20542;-77
2023/03/30 04:01:38;;;;;;;13.13;4.07;;;14.70;99.90;;;;;;5022655;28;20192;-72
2023/03/30 04:04:04;;;;;;;16.47;4.33;;;14.70;99.90;;;;;;5023792;28;20195;-74
2023/03/30 04:06:30;;;;;;;10.43;4.63;;;14.70;99.90;;;;;;5024031;28;20188;-72
2023/03/30 04:08:55;;;;;;;14.17;4.20;;;14.70;99.90;;;;;;5023475;28;20282;-72
2023/03/30 04:11:21;;;;;;;8.20;3.60;;;14.80;99.90;;;;;;5024163;28;20833;-72
2023/03/30 04:13:47;;;;;;;8.47;3.80;;;14.90;99.90;;;;;;5023453;28;20218;-73
2023/03/30 04:16:12;;;;;;;12.27;3.30;;;14.90;99.90;;;;;;5023472;28;20198;-72
2023/03/30 04:18:40;;;;;;;12.40;3.80;;;15.00;99.90;;;;;;5023366;28;20531;-72
2023/03/30 04:21:06;;;;;;;12.00;4.80;;;14.90;99.90;;;;;;5023442;28;20176;-73
2023/03/30 04:23:33;;;;;;;8.50;4.10;;;15.00;99.90;;;;;;5023821;28;20523;-71
2023/03/30 04:26:06;;;;;;;9.80;5.10;;;15.10;99.90;;;;;;5023521;28;20422;-71
2023/03/30 04:28:34;;;;;;;13.47;3.93;;;14.90;99.90;;;;;;5023579;28;20519;-72
2023/03/30 04:31:01;;;;;;;17.10;4.23;;;14.80;99.90;;;;;;5022610;28;20430;-71
2023/03/30 04:33:28;;;;;;;15.53;4.53;;;14.70;99.90;;;;;;5023349;28;20946;-72
2023/03/30 04:35:54;;;;;;;11.63;3.40;;;14.70;99.90;;;;;;5023333;28;20477;-71
2023/03/30 04:38:22;;;;;;;9.10;3.63;;;14.80;99.90;;;;;;5022610;28;20962;-72
2023/03/30 04:40:52;;;;;;;14.10;4.57;;;15.00;99.90;;;;;;5023340;28;20349;-72
2023/03/30 04:43:19;;;;;;;10.20;3.87;;;14.90;99.90;;;;;;5023452;28;20412;-72
2023/03/30 04:45:52;;;;;;;17.30;5.00;;;15.10;99.90;;;;;;5022176;28;20571;-71
2023/03/30 04:48:19;;;;;;;17.23;5.00;;;15.20;99.90;;;;;;5023490;28;20435;-73
2023/03/30 04:50:46;;;;;;;14.37;4.67;;;15.30;99.90;;;;;;5023566;28;20787;-73
2023/03/30 04:53:14;;;;;;;7.90;3.43;;;15.40;99.90;;;;;;5023634;28;21191;-74
2023/03/30 04:55:39;;;;;;;14.33;4.27;;;15.50;99.90;;;;;;5023179;28;20852;-73
2023/03/30 04:58:05;;;;;;;12.00;4.30;;;15.50;99.90;;;;;;5023515;28;20435;-72
2023/03/30 05:00:31;;;;;;;8.90;3.23;;;15.50;99.90;;;;;;5022702;28;20177;-71
2023/03/30 05:02:57;;;;;;;12.80;3.43;;;15.20;99.90;;;;;;5023776;28;20181;-72
2023/03/30 05:05:22;;;;;;;9.80;4.40;;;15.10;99.90;;;;;;5026970;28;20424;-72
2023/03/30 05:07:48;;;;;;;11.57;3.90;;;15.00;99.90;;;;;;5025590;28;20223;-73
2023/03/30 05:10:13;;;;;;;16.93;4.40;;;15.00;99.90;;;;;;5027065;28;20655;-72
2023/03/30 05:12:39;;;;;;;15.00;3.97;;;15.00;99.90;;;;;;5027373;28;20667;-72
2023/03/30 05:15:05;;;;;;;13.80;4.30;;;15.00;99.90;;;;;;5027262;28;20230;-72
2023/03/30 05:17:34;;;;;;;14.27;4.90;;;15.00;99.90;;;;;;5026244;28;20182;-73
2023/03/30 05:20:00;;;;;;;10.17;3.90;;;15.10;99.90;;;;;;5026833;28;21119;-72
2023/03/30 05:22:25;;;;;;;19.67;4.70;;;15.10;99.90;;;;;;5027159;28;20656;-74
2023/03/30 05:24:51;;;;;;;16.13;4.80;;;15.10;99.90;;;;;;5026705;28;20423;-74
2023/03/30 05:27:17;;;;;;;16.57;4.43;;;15.10;99.90;;;;;;5026547;28;20184;-71
2023/03/30 05:29:43;;;;;;;23.27;5.23;;;15.10;99.90;;;;;;5026887;28;20472;-73
2023/03/30 05:32:09;;;;;;;10.60;4.80;;;15.00;99.90;;;;;;5025564;28;20427;-71
2023/03/30 05:34:34;;;;;;;14.70;4.93;;;15.10;99.90;;;;;;5026286;28;20231;-72
2023/03/30 05:37:00;;;;;;;13.60;4.83;;;15.20;99.90;;;;;;5026807;28;20189;-71
2023/03/30 05:39:26;;;;;;;19.70;4.60;;;15.10;99.90;;;;;;5026523;28;20342;-71
2023/03/30 05:41:53;;;;;;;11.00;5.03;;;15.00;99.90;;;;;;5027002;28;20310;-71
2023/03/30 05:44:18;;;;;;;10.80;5.07;;;15.10;99.90;;;;;;5024650;28;20518;-72
2023/03/30 05:46:44;;;;;;;9.97;4.80;;;15.10;99.90;;;;;;5026480;28;20195;-74
2023/03/30 05:49:09;;;;;;;14.07;4.50;;;15.10;99.90;;;;;;5026307;28;20214;-72
2023/03/30 05:51:35;;;;;;;15.33;4.70;;;15.10;99.90;;;;;;5026359;28;20591;-72
2023/03/30 05:54:02;;;;;;;12.27;5.43;;;15.10;99.90;;;;;;5026407;28;20579;-71
2023/03/30 05:56:28;;;;;;;9.57;4.40;;;15.00;99.90;;;;;;5026490;28;20613;-71
2023/03/30 05:58:53;;;;;;;8.83;3.93;;;15.00;99.90;;;;;;5025118;28;20536;-72
2023/03/30 06:01:20;;;;;;;11.43;4.77;;;15.10;99.90;;;;;;5024840;28;20180;-73
2023/03/30 06:03:45;;;;;;;13.93;4.80;;;15.20;99.90;;;;;;5030001;28;20269;-71
2023/03/30 06:06:11;;;;;;;13.67;4.10;;;15.30;99.90;;;;;;5025858;28;20869;-71
2023/03/30 06:08:37;;;;;;;13.23;4.23;;;15.40;99.90;;;;;;5026188;28;20206;-72
2023/03/30 06:11:03;;;;;;;10.93;4.50;;;15.20;99.90;;;;;;5026341;28;20285;-71
2023/03/30 06:13:29;;;;;;;12.43;4.80;;;15.30;99.90;;;;;;5026060;28;20532;-72
2023/03/30 06:15:55;;;;;;;8.07;4.03;;;15.30;99.90;;;;;;5025556;28;20892;-71
2023/03/30 06:18:21;;;;;;;8.07;3.57;;;15.50;99.90;;;;;;5025492;28;20609;-71
2023/03/30 06:20:47;;;;;;;14.47;4.70;;;15.60;99.90;;;;;;5023999;28;20680;-73
2023/03/30 06:23:14;;;;;;;15.20;4.67;;;15.50;99.90;;;;;;5019260;28;20967;-72
2023/03/30 06:25:40;;;;;;;12.77;4.80;;;15.70;99.90;;;;;;5024361;28;20984;-72
2023/03/30 06:28:06;;;;;;;11.60;4.13;;;15.80;99.90;;;;;;5025838;28;20429;-71
2023/03/30 06:30:32;;;;;;;9.70;4.93;;;15.60;99.90;;;;;;5025240;28;20678;-72
2023/03/30 06:32:58;;;;;;;9.57;3.77;;;15.70;99.90;;;;;;5023417;28;20422;-75
2023/03/30 06:35:23;;;;;;;9.17;4.53;;;15.60;99.90;;;;;;5024599;28;20572;-72
2023/03/30 06:37:49;;;;;;;14.30;5.10;;;15.80;99.90;;;;;;5025759;28;20175;-71
2023/03/30 06:40:16;;;;;;;14.57;5.70;;;15.90;99.90;;;;;;5025969;28;20199;-72
2023/03/30 06:42:45;;;;;;;13.93;5.80;;;15.70;99.90;;;;;;5025186;28;20368;-74
2023/03/30 06:45:12;;;;;;;12.70;5.20;;;15.80;99.90;;;;;;5025483;28;20422;-71
2023/03/30 06:47:40;;;;;;;13.93;5.67;;;16.00;99.90;;;;;;5022698;28;20434;-71
2023/03/30 06:50:06;;;;;;;13.73;6.20;;;15.90;99.90;;;;;;5023525;28;20484;-72
2023/03/30 06:52:36;;;;;;;10.93;5.17;;;15.80;99.90;;;;;;5024293;28;20449;-71
2023/03/30 06:55:03;;;;;;;13.30;5.17;;;15.70;99.90;;;;;;5022364;28;20531;-72
2023/03/30 06:57:29;;;;;;;9.70;4.70;;;15.40;99.90;;;;;;5025000;28;20455;-71
2023/03/30 06:59:55;;;;;;;16.30;6.10;;;15.20;99.90;;;;;;5024568;28;20531;-71
2023/03/30 07:02:21;;;;;;;13.93;5.33;;;15.20;99.90;;;;;;5023285;28;20457;-73
2023/03/30 07:04:46;;;;;;;10.67;4.27;;;15.20;99.90;;;;;;5024982;28;20504;-71
2023/03/30 07:07:13;;;;;;;13.40;4.70;;;15.10;99.90;;;;;;5024661;28;20180;-71
2023/03/30 07:09:39;;;;;;;13.53;5.00;;;15.40;99.90;;;;;;5024773;28;20954;-71
2023/03/30 07:12:05;;;;;;;17.90;4.83;;;15.40;99.90;;;;;;5024867;28;20499;-73
2023/03/30 07:14:30;;;;;;;11.90;3.73;;;15.40;99.90;;;;;;5025018;28;20519;-71
2023/03/30 07:16:56;;;;;;;12.23;4.00;;;15.40;99.90;;;;;;5024161;28;20405;-72
2023/03/30 07:19:22;;;;;;;15.13;4.77;;;15.50;99.90;;;;;;5024171;28;20589;-72
2023/03/30 07:21:47;;;;;;;12.40;4.70;;;15.40;99.90;;;;;;5024687;28;20526;-74
2023/03/30 07:24:13;;;;;;;16.60;5.30;;;15.30;99.90;;;;;;5024442;28;20254;-73
2023/03/30 07:26:39;;;;;;;10.00;4.77;;;15.10;99.90;;;;;;5023577;28;20888;-72
2023/03/30 07:29:05;;;;;;;16.77;4.63;;;14.90;99.90;;;;;;5024538;28;20727;-73
2023/03/30 07:31:31;;;;;;;10.30;4.70;;;14.90;99.90;;;;;;5024857;28;20336;-72
2023/03/30 07:33:57;;;;;;;10.67;4.77;;;14.80;99.90;;;;;;5022710;28;20615;-72
2023/03/30 07:36:22;;;;;;;16.77;5.60;;;14.90;99.90;;;;;;5023931;28;20559;-71
2023/03/30 07:38:48;;;;;;;12.17;5.07;;;14.90;99.90;;;;;;5023997;28;21046;-71
2023/03/30 07:41:15;;;;;;;8.73;4.40;;;14.70;99.90;;;;;;5024557;28;20179;-72
2023/03/30 07:43:40;;;;;;;11.80;4.17;;;14.50;99.90;;;;;;5024253;28;20179;-72
2023/03/30 07:46:08;;;;;;;10.43;4.50;;;14.60;99.90;;;;;;5023507;28;20425;-73
2023/03/30 07:48:34;;;;;;;11.43;4.83;;;14.60;99.90;;;;;;5024406;28;20193;-72
2023/03/30 07:51:11;;;;;;;11.77;4.50;;;14.50;99.90;;;;;;5023866;28;20416;-72
2023/03/30 07:53:38;;;;;;;7.50;4.40;;;14.60;99.90;;;;;;5024323;28;20227;-74
2023/03/30 07:56:04;;;;;;;6.37;4.00;;;14.70;99.90;;;;;;5024102;28;20413;-72
2023/03/30 07:58:30;;;;;;;8.07;4.80;;;14.60;99.90;;;;;;5024197;28;20885;-70
2023/03/30 08:00:56;;;;;;;9.77;3.70;;;14.60;99.90;;;;;;5023831;28;20412;-70
2023/03/30 08:03:22;;;;;;;9.20;4.70;;;14.80;99.90;;;;;;5023922;28;20413;-73
2023/03/30 08:05:52;;;;;;;8.37;4.60;;;15.10;99.90;;;;;;5023819;28;20219;-73
2023/03/30 08:08:18;;;;;;;8.47;4.30;;;15.10;99.90;;;;;;5023744;28;20198;-71
2023/03/30 08:10:44;;;;;;;8.33;4.10;;;15.10;99.90;;;;;;5024073;28;20895;-72
2023/03/30 08:13:11;;;;;;;5.67;3.17;;;15.10;99.90;;;;;;5022577;28;20538;-72
2023/03/30 08:15:36;;;;;;;6.70;3.67;;;15.00;99.90;;;;;;5023861;28;20253;-70
2023/03/30 08:18:05;;;;;;;9.73;3.50;;;15.10;99.90;;;;;;5023372;28;20402;-70
2023/03/30 08:20:32;;;;;;;8.50;4.20;;;15.10;99.90;;;;;;5023011;28;20179;-71
2023/03/30 08:22:57;;;;;;;9.77;4.33;;;15.00;99.90;;;;;;5023595;28;20427;-72
2023/03/30 08:25:23;;;;;;;8.40;4.37;;;14.80;99.90;;;;;;5024203;28;20910;-73
2023/03/30 08:27:48;;;;;;;8.03;3.90;;;14.70;99.90;;;;;;5023291;28;20217;-71
2023/03/30 08:30:15;;;;;;;8.77;4.50;;;14.60;99.90;;;;;;5023190;28;20613;-74
2023/03/30 08:32:40;;;;;;;10.77;4.53;;;14.80;99.90;;;;;;5024502;28;20175;-71
2023/03/30 08:35:07;;;;;;;11.03;4.10;;;14.90;99.90;;;;;;5023413;28;20459;-71
2023/03/30 08:37:32;;;;;;;9.17;3.27;;;15.10;99.90;;;;;;5023513;28;20183;-72
2023/03/30 08:39:58;;;;;;;6.43;3.30;;;15.10;99.90;;;;;;5023555;28;20461;-72
2023/03/30 08:42:54;;;;;;;7.07;3.80;;;15.20;99.90;;;;;;5024049;28;20179;-72
2023/03/30 08:45:20;;;;;;;5.87;3.80;;;15.40;99.90;;;;;;5011951;28;20561;-72
2023/03/30 08:47:50;;;;;;;7.77;3.80;;;15.60;99.90;;;;;;5022518;28;20402;-71
2023/03/30 08:50:33;;;;;;;6.00;3.27;;;15.60;99.90;;;;;;5023293;28;20594;-71
2023/03/30 08:52:59;;;;;;;6.70;3.67;;;15.70;99.90;;;;;;5023105;28;20884;-72
2023/03/30 08:55:24;;;;;;;7.17;3.30;;;15.60;99.90;;;;;;5022893;28;20538;-72
2023/03/30 08:58:08;;;;;;;12.00;3.47;;;15.40;99.90;;;;;;5024496;28;20553;-73
2023/03/30 09:00:47;;;;;;;6.47;3.70;;;15.30;99.90;;;;;;5023972;28;20763;-75
2023/03/30 09:03:22;;;;;;;6.20;3.03;;;15.30;99.90;;;;;;5023427;28;20402;-72
2023/03/30 09:05:53;;;;;;;4.53;3.27;;;15.30;99.90;;;;;;5023232;28;20404;-73
2023/03/30 09:08:27;;;;;;;9.20;3.70;;;15.00;99.90;;;;;;5023178;28;20582;-73
2023/03/30 09:11:01;;;;;;;3.90;3.03;;;14.70;99.90;;;;;;5023953;28;20848;-72
2023/03/30 09:13:36;;;;;;;5.93;2.50;;;14.60;99.90;;;;;;5022358;28;21157;-72
2023/03/30 09:16:08;;;;;;;9.23;2.90;;;14.40;99.90;;;;;;5023511;28;20443;-73
2023/03/30 09:18:36;;;;;;;4.90;2.87;;;14.30;99.90;;;;;;5024706;28;20585;-72
2023/03/30 09:21:04;;;;;;;5.70;3.13;;;14.20;99.90;;;;;;5023756;28;20424;-75
2023/03/30 09:23:31;;;;;;;4.97;3.07;;;14.10;99.90;;;;;;5022531;28;20969;-73
2023/03/30 09:26:15;;;;;;;9.90;2.87;;;14.00;99.90;;;;;;5023403;28;20934;-73
2023/03/30 09:29:09;;;;;;;4.63;2.60;;;14.10;99.90;;;;;;5022405;28;20453;-71
2023/03/30 09:31:43;;;;;;;4.97;2.37;;;14.20;99.90;;;;;;5014639;28;20433;-71
2023/03/30 09:34:33;;;;;;;4.03;2.20;;;14.40;99.90;;;;;;5023633;28;20447;-71
2023/03/30 09:37:11;;;;;;;3.00;2.50;;;14.50;99.90;;;;;;5023896;28;20823;-72
2023/03/30 09:39:38;;;;;;;4.13;2.73;;;14.60;99.90;;;;;;5024540;28;20824;-72
2023/03/30 09:42:15;;;;;;;3.90;2.80;;;14.60;99.90;;;;;;5023601;28;20440;-73
2023/03/30 09:44:58;;;;;;;4.43;2.70;;;14.70;99.90;;;;;;5024127;28;20511;-74
2023/03/30 09:47:37;;;;;;;6.47;2.70;;;14.80;99.90;;;;;;5023564;28;20504;-73
2023/03/30 09:50:09;;;;;;;3.80;2.30;;;15.00;99.90;;;;;;5026624;28;20474;-73
2023/03/30 09:52:40;;;;;;;5.77;2.87;;;15.00;99.90;;;;;;5029640;28;20871;-72
2023/03/30 09:55:21;;;;;;;4.10;3.03;;;15.10;99.90;;;;;;5027399;28;20816;-73
2023/03/30 09:57:51;;;;;;;4.40;2.50;;;15.10;99.90;;;;;;5026580;28;20423;-73
2023/03/30 10:00:31;;;;;;;4.20;3.17;;;15.30;99.90;;;;;;5027728;28;20424;-73
2023/03/30 10:03:03;;;;;;;6.30;3.33;;;15.30;99.90;;;;;;5027966;28;20753;-73
2023/03/30 10:05:31;;;;;;;3.87;2.80;;;15.20;99.90;;;;;;5052221;22;20528;-73
2023/03/30 10:08:00;;;;;;;5.70;3.10;;;15.20;99.90;;;;;;5027072;28;20441;-74
2023/03/30 10:10:25;;;;;;;3.77;3.23;;;15.40;99.90;;;;;;5027976;28;20496;-74
2023/03/30 10:12:54;;;;;;;5.93;3.80;;;15.60;99.90;;;;;;5026001;28;20500;-74
2023/03/30 10:15:26;;;;;;;3.47;2.63;;;15.50;99.90;;;;;;5023862;28;20215;-74
2023/03/30 10:17:55;;;;;;;5.27;3.00;;;15.60;99.90;;;;;;5015325;28;20578;-75
2023/03/30 10:20:33;;;;;;;4.10;2.80;;;15.70;99.90;;;;;;5016820;28;20426;-75
2023/03/30 10:23:00;;;;;;;4.60;3.07;;;15.70;99.90;;;;;;5014270;28;20425;-73
2023/03/30 10:25:28;;;;;;;5.17;3.50;;;16.20;99.90;;;;;;5016970;28;20442;-74
2023/03/30 10:28:01;;;;;;;4.60;3.47;;;16.50;99.90;;;;;;5011962;28;20410;-71
2023/03/30 10:30:28;;;;;;;4.73;2.93;;;16.70;99.90;;;;;;5014528;28;20485;-73
2023/03/30 10:32:57;;;;;;;6.00;3.10;;;17.10;99.90;;;;;;5015714;28;20423;-74
2023/03/30 10:35:31;;;;;;;4.83;3.20;;;17.00;99.90;;;;;;5016713;28;20661;-74
2023/03/30 10:38:00;;;;;;;7.90;3.10;;;16.60;99.90;;;;;;5013544;28;20917;-74
2023/03/30 10:40:40;;;;;;;5.37;3.50;;;16.50;99.90;;;;;;5015493;28;20414;-72
2023/03/30 10:43:16;;;;;;;4.20;3.17;;;16.50;99.90;;;;;;5010748;28;20806;-73
2023/03/30 10:45:51;;;;;;;6.00;3.27;;;16.40;99.90;;;;;;5014241;28;20588;-72
2023/03/30 10:48:19;;;;;;;3.40;2.33;;;16.40;99.90;;;;;;5014305;28;20421;-73
2023/03/30 10:51:14;;;;;;;3.17;2.80;;;16.50;99.90;;;;;;5018891;28;20459;-74
2023/03/30 10:53:52;;;;;;;4.33;3.20;;;16.50;99.90;;;;;;5016235;28;20781;-72
2023/03/30 10:56:45;;;;;;;4.67;2.80;;;16.40;99.90;;;;;;5014984;28;20446;-73
2023/03/30 10:59:48;;;;;;;4.00;2.63;;;16.30;99.90;;;;;;5013128;28;20489;-71
2023/03/30 11:02:22;;;;;;;4.97;3.10;;;16.20;99.90;;;;;;5004157;28;20509;-70
2023/03/30 11:04:57;;;;;;;7.67;3.43;;;16.20;99.90;;;;;;5005226;28;20936;-68
2023/03/30 11:07:32;;;;;;;4.53;3.23;;;16.30;99.90;;;;;;5024695;28;20432;-71
2023/03/30 11:10:07;;;;;;;4.80;3.10;;;16.40;99.90;;;;;;5016057;28;20406;-72
2023/03/30 11:12:39;;;;;;;5.37;3.30;;;16.10;99.90;;;;;;5006618;28;20442;-74
2023/03/30 11:15:30;;;;;;;4.40;3.27;;;16.00;99.90;;;;;;5021688;28;20460;-70
2023/03/30 11:18:07;;;;;;;3.70;3.00;;;16.30;99.90;;;;;;4978564;28;20426;-71
2023/03/30 11:20:40;;;;;;;4.97;3.10;;;16.60;99.90;;;;;;5025248;28;21000;-70
2023/03/30 11:23:15;;;;;;;5.10;3.23;;;16.70;99.90;;;;;;5020026;28;20842;-70
2023/03/30 11:25:56;;;;;;;5.37;3.40;;;16.80;99.90;;;;;;5023487;28;20429;-70
2023/03/30 11:28:44;;;;;;;6.10;3.00;;;17.00;99.90;;;;;;5021619;28;20779;-71
2023/03/30 11:31:38;;;;;;;5.23;3.07;;;17.30;99.90;;;;;;5008078;28;20410;-70
2023/03/30 11:34:13;;;;;;;5.30;2.97;;;17.40;99.90;;;;;;5024532;28;20450;-71
2023/03/30 11:37:13;;;;;;;2.90;2.40;;;17.50;99.90;;;;;;5006447;28;20735;-70
2023/03/30 11:39:50;;;;;;;6.73;3.27;;;17.80;99.90;;;;;;5017388;28;20405;-72
2023/03/30 11:42:30;;;;;;;7.77;3.00;;;18.20;99.90;;;;;;5024733;28;20436;-68
2023/03/30 11:44:57;;;;;;;7.53;3.00;;;18.70;99.90;;;;;;5011415;28;20430;-70
2023/03/30 11:47:40;;;;;;;8.10;3.50;;;18.30;99.90;;;;;;5007911;28;20419;-70
2023/03/30 11:50:19;;;;;;;6.10;3.30;;;17.70;99.90;;;;;;5013528;28;20431;-70
2023/03/30 11:52:51;;;;;;;8.80;3.60;;;17.50;99.90;;;;;;5005854;28;20742;-72
2023/03/30 11:55:28;;;;;;;3.57;3.20;;;17.30;99.90;;;;;;5020832;28;20616;-71
2023/03/30 11:58:12;;;;;;;6.03;2.70;;;17.00;99.90;;;;;;5019850;28;20406;-71
2023/03/30 12:01:32;;;;;;;5.90;3.40;;;17.20;99.90;;;;;;5007081;28;20445;-71
2023/03/30 12:04:10;;;;;;;4.97;2.90;;;17.40;99.90;;;;;;4974464;28;20525;-73
2023/03/30 12:06:40;;;;;;;10.20;3.37;;;17.80;99.90;;;;;;5006335;28;20461;-73
2023/03/30 12:09:34;;;;;;;3.10;2.80;;;17.70;99.90;;;;;;5011600;28;20414;-74
2023/03/30 12:12:10;;;;;;;4.53;3.13;;;17.60;99.90;;;;;;5013984;28;20438;-73
2023/03/30 12:14:43;;;;;;;4.70;3.00;;;17.60;99.90;;;;;;5017239;28;21144;-73
2023/03/30 12:17:34;;;;;;;4.43;3.03;;;17.80;99.90;;;;;;5002483;28;20415;-73
2023/03/30 12:20:16;;;;;;;5.50;3.70;;;17.90;99.90;;;;;;5005148;28;20402;-71
2023/03/30 12:23:08;;;;;;;4.77;3.20;;;17.40;99.90;;;;;;5004223;28;20418;-73
2023/03/30 12:25:43;;;;;;;5.97;3.93;;;17.40;99.90;;;;;;5010618;28;20960;-72
2023/03/30 12:28:16;;;;;;;5.80;3.00;;;17.20;99.90;;;;;;5008048;28;20442;-73
2023/03/30 12:30:52;;;;;;;10.73;3.70;;;17.10;99.90;;;;;;5005911;28;20785;-70
2023/03/30 12:33:49;;;;;;;5.70;3.63;;;17.10;99.90;;;;;;5007389;28;20800;-73
2023/03/30 12:36:25;;;;;;;8.70;4.47;;;16.80;99.90;;;;;;4994273;28;20449;-74
2023/03/30 12:38:56;;;;;;;7.93;3.10;;;16.70;99.90;;;;;;5009611;28;20418;-70
2023/03/30 12:41:25;;;;;;;4.20;3.23;;;17.70;99.90;;;;;;5023300;28;20816;-73
2023/03/30 12:43:53;;;;;;;6.10;3.40;;;19.60;99.90;;;;;;5012865;28;20765;-72
2023/03/30 12:46:28;;;;;;;9.23;4.00;;;19.70;99.90;;;;;;5004011;28;20435;-72
2023/03/30 12:49:18;;;;;;;9.40;4.03;;;19.70;99.90;;;;;;5007495;28;20414;-74
2023/03/30 12:51:59;;;;;;;19.13;10.77;;;20.60;99.90;;;;;;5022845;28;20944;-73
2023/03/30 12:54:44;;;;;;;7.03;4.50;;;20.70;99.90;;;;;;5020722;28;20972;-73
2023/03/30 12:57:13;;;;;;;3.60;3.10;;;20.90;99.90;;;;;;5021694;28;20785;-77
2023/03/30 12:59:38;;;;;;;7.57;3.40;;;20.90;99.90;;;;;;5024584;28;20779;-74
2023/03/30 13:02:26;;;;;;;5.07;3.67;;;20.00;99.90;;;;;;5007024;28;20414;-75
2023/03/30 13:04:52;;;;;;;7.20;3.33;;;19.90;99.90;;;;;;5011453;28;20215;-70
2023/03/30 13:07:23;;;;;;;8.03;3.13;;;19.00;99.90;;;;;;5019700;28;20485;-72